createdAt,value
2022-11-16T00:00:13.201Z,11.50
2022-11-16T00:02:39.936Z,11.50
2022-11-16T00:07:33.845Z,11.50
2022-11-16T00:10:00.526Z,11.50
2022-11-16T00:14:54.397Z,11.50
2022-11-16T00:24:42.252Z,11.50
2022-11-16T00:27:08.885Z,11.50
2022-11-16T00:32:02.647Z,11.40
2022-11-16T00:36:56.630Z,11.50
2022-11-16T00:39:24.112Z,11.50
2022-11-16T00:46:45.793Z,11.50
2022-11-16T00:51:39.517Z,11.50
2022-11-16T00:54:08.039Z,11.50
2022-11-16T00:59:02.022Z,11.40
2022-11-16T01:01:28.780Z,11.50
2022-11-16T01:03:55.581Z,11.50
2022-11-16T01:06:23.415Z,11.50
2022-11-16T01:08:50.934Z,11.50
2022-11-16T01:11:37.871Z,11.50
2022-11-16T01:14:07.767Z,11.50
2022-11-16T01:16:35.164Z,11.50
2022-11-16T01:21:29.445Z,11.50
2022-11-16T01:23:57.151Z,11.50
2022-11-16T01:26:24.661Z,11.50
2022-11-16T01:28:51.610Z,11.50
2022-11-16T01:33:45.396Z,11.40
2022-11-16T01:36:14.728Z,11.50
2022-11-16T01:38:43.277Z,11.50
2022-11-16T01:41:14.786Z,11.50
2022-11-16T01:44:04.917Z,11.50
2022-11-16T01:46:31.969Z,11.50
2022-11-16T01:49:10.571Z,11.50
2022-11-16T01:51:38.900Z,11.50
2022-11-16T01:54:09.782Z,11.50
2022-11-16T01:56:38.589Z,11.50
2022-11-16T01:59:05.754Z,11.50
2022-11-16T02:06:26.573Z,11.50
2022-11-16T02:09:39.300Z,11.50
2022-11-16T02:15:00.726Z,11.50
2022-11-16T02:17:36.479Z,11.50
2022-11-16T02:20:12.107Z,11.50
2022-11-16T02:22:57.312Z,11.50
2022-11-16T02:25:38.868Z,11.50
2022-11-16T02:28:24.213Z,11.50
2022-11-16T02:30:53.824Z,11.50
2022-11-16T02:33:25.840Z,11.50
2022-11-16T02:35:56.352Z,11.50
2022-11-16T02:38:37.344Z,11.50
2022-11-16T02:41:10.105Z,11.50
2022-11-16T02:43:50.545Z,11.60
2022-11-16T02:46:22.674Z,11.60
2022-11-16T02:48:53.292Z,11.60
2022-11-16T02:51:21.856Z,11.50
2022-11-16T02:54:15.210Z,11.50
2022-11-16T02:56:50.607Z,11.50
2022-11-16T02:59:17.852Z,11.50
2022-11-16T03:01:59.689Z,11.50
2022-11-16T03:04:36.165Z,11.50
2022-11-16T03:07:10.740Z,11.50
2022-11-16T03:09:39.859Z,11.50
2022-11-16T03:12:10.858Z,11.40
2022-11-16T03:14:56.682Z,11.50
2022-11-16T03:17:30.388Z,11.40
2022-11-16T03:20:06.713Z,11.40
2022-11-16T03:22:39.258Z,11.50
2022-11-16T03:25:07.215Z,11.40
2022-11-16T03:27:44.880Z,11.40
2022-11-16T03:30:24.491Z,11.40
2022-11-16T03:33:06.164Z,11.40
2022-11-16T03:35:48.224Z,11.40
2022-11-16T03:38:17.488Z,11.40
2022-11-16T03:40:46.519Z,11.40
2022-11-16T03:43:14.870Z,11.40
2022-11-16T03:50:35.950Z,11.40
2022-11-16T03:53:02.626Z,11.40
2022-11-16T03:55:29.305Z,11.40
2022-11-16T04:00:23.032Z,11.40
2022-11-16T04:05:35.537Z,11.40
2022-11-16T04:13:53.253Z,11.40
2022-11-16T04:16:38.633Z,11.40
2022-11-16T04:19:24.111Z,11.40
2022-11-16T04:22:13.519Z,11.40
2022-11-16T04:24:44.219Z,11.30
2022-11-16T04:27:32.820Z,11.40
2022-11-16T04:30:01.961Z,11.20
2022-11-16T04:35:33.228Z,11.40
2022-11-16T04:37:59.945Z,11.50
2022-11-16T04:40:29.416Z,11.50
2022-11-16T04:43:01.477Z,11.50
2022-11-16T04:45:47.303Z,11.40
2022-11-16T04:48:15.593Z,11.40
2022-11-16T04:50:42.482Z,11.40
2022-11-16T04:55:36.433Z,11.30
2022-11-16T04:58:03.581Z,11.30
2022-11-16T05:03:01.252Z,11.10
2022-11-16T05:12:49.782Z,11.10
2022-11-16T05:15:17.707Z,11.10
2022-11-16T05:17:44.365Z,11.10
2022-11-16T05:22:58.325Z,11.00
2022-11-16T05:25:25.018Z,11.10
2022-11-16T05:30:18.858Z,11.00
2022-11-16T05:40:07.571Z,10.90
2022-11-16T05:42:34.418Z,11.00
2022-11-16T05:45:01.208Z,11.00
2022-11-16T05:47:27.897Z,11.00
2022-11-16T05:57:15.911Z,10.80
2022-11-16T06:07:04.101Z,10.50
2022-11-16T06:11:57.985Z,10.40
2022-11-16T06:14:24.725Z,10.30
2022-11-16T06:19:18.463Z,10.10
2022-11-16T06:24:12.200Z,10.00
2022-11-16T06:26:38.850Z,9.90
2022-11-16T06:29:05.524Z,9.80
2022-11-16T06:33:59.500Z,9.70
2022-11-16T06:38:53.217Z,9.60
2022-11-16T06:41:19.981Z,9.60
2022-11-16T06:46:13.814Z,9.50
2022-11-16T06:51:07.898Z,9.50
2022-11-16T06:56:03.774Z,9.50
2022-11-16T06:58:32.145Z,9.40
2022-11-16T07:01:08.949Z,9.40
2022-11-16T07:03:35.580Z,9.40
2022-11-16T07:06:07.669Z,9.50
2022-11-16T07:11:04.395Z,9.70
2022-11-16T07:13:33.101Z,9.70
2022-11-16T07:16:10.674Z,9.60
2022-11-16T07:18:39.129Z,9.60
2022-11-16T07:21:11.709Z,9.60
2022-11-16T07:23:38.888Z,9.60
2022-11-16T07:26:07.313Z,9.50
2022-11-16T07:31:03.547Z,9.50
2022-11-16T07:36:07.887Z,9.40
2022-11-16T07:38:35.149Z,9.40
2022-11-16T07:41:06.522Z,9.40
2022-11-16T07:43:37.039Z,9.40
2022-11-16T07:53:55.889Z,9.40
2022-11-16T07:56:22.663Z,9.40
2022-11-16T08:01:18.530Z,9.40
2022-11-16T08:03:46.343Z,9.40
2022-11-16T08:06:23.740Z,9.30
2022-11-16T08:08:55.138Z,9.30
2022-11-16T08:11:24.652Z,9.30
2022-11-16T08:13:51.316Z,9.30
2022-11-16T08:16:20.252Z,9.30
2022-11-16T08:18:47.545Z,9.30
2022-11-16T08:21:16.125Z,9.30
2022-11-16T08:23:44.624Z,9.30
2022-11-16T08:26:16.773Z,9.40
2022-11-16T08:28:45.871Z,9.40
2022-11-16T08:31:14.993Z,9.50
2022-11-16T08:33:41.993Z,9.50
2022-11-16T08:36:14.227Z,9.60
2022-11-16T08:38:41.414Z,9.60
2022-11-16T08:46:03.176Z,9.80
2022-11-16T08:51:21.994Z,10.00
2022-11-16T08:53:49.889Z,10.30
2022-11-16T08:56:18.163Z,10.50
2022-11-16T08:58:53.917Z,10.60
2022-11-16T09:01:27.330Z,10.70
2022-11-16T09:06:22.493Z,10.90
2022-11-16T09:08:49.474Z,10.90
2022-11-16T09:11:19.107Z,11.00
2022-11-16T09:13:47.527Z,11.20
2022-11-16T09:16:17.914Z,11.30
2022-11-16T09:18:47.050Z,11.40
2022-11-16T09:21:18.875Z,11.50
2022-11-16T09:23:46.512Z,11.60
2022-11-16T09:28:40.625Z,11.70
2022-11-16T09:31:07.380Z,11.70
2022-11-16T09:33:34.534Z,11.80
2022-11-16T09:36:07.294Z,11.90
2022-11-16T09:42:05.736Z,12.20
2022-11-16T09:44:41.677Z,12.20
2022-11-16T09:47:36.042Z,12.20
2022-11-16T09:50:05.400Z,12.00
2022-11-16T09:52:40.745Z,11.90
2022-11-16T09:55:42.225Z,11.80
2022-11-16T09:58:21.736Z,11.70
2022-11-16T10:00:56.120Z,11.70
2022-11-16T10:03:26.358Z,11.70
2022-11-16T10:06:11.505Z,11.60
2022-11-16T10:08:46.582Z,14.80
2022-11-16T10:11:39.528Z,11.60
2022-11-16T10:19:22.078Z,11.60
2022-11-16T10:22:17.676Z,11.60
2022-11-16T10:25:16.836Z,11.70
2022-11-16T10:28:14.362Z,11.70
2022-11-16T10:30:52.112Z,11.70
2022-11-16T10:33:22.038Z,11.70
2022-11-16T10:35:55.946Z,11.70
2022-11-16T10:38:28.343Z,11.80
2022-11-16T10:41:18.069Z,11.90
2022-11-16T10:43:45.554Z,11.90
2022-11-16T10:46:21.355Z,11.90
2022-11-16T10:49:12.332Z,12.00
2022-11-16T10:51:39.029Z,12.00
2022-11-16T10:54:16.341Z,12.00
2022-11-16T10:56:47.078Z,12.10
2022-11-16T10:59:15.413Z,12.10
2022-11-16T11:01:50.395Z,12.00
2022-11-16T11:04:31.566Z,12.00
2022-11-16T11:07:17.153Z,12.00
2022-11-16T11:09:43.991Z,12.10
2022-11-16T11:12:35.013Z,12.10
2022-11-16T11:15:25.946Z,12.10
2022-11-16T11:18:15.182Z,12.10
2022-11-16T11:21:00.332Z,12.00
2022-11-16T11:23:27.751Z,12.10
2022-11-16T11:25:57.141Z,12.10
2022-11-16T11:28:32.685Z,12.10
2022-11-16T11:31:04.885Z,12.20
2022-11-16T11:33:37.633Z,12.30
2022-11-16T11:36:04.567Z,12.30
2022-11-16T11:41:01.499Z,12.20
2022-11-16T11:43:29.725Z,12.30
2022-11-16T11:46:11.616Z,12.30
2022-11-16T11:49:04.833Z,12.30
2022-11-16T11:54:01.027Z,12.40
2022-11-16T11:56:31.689Z,12.40
2022-11-16T11:58:58.704Z,12.50
2022-11-16T12:01:34.158Z,12.50
2022-11-16T12:04:28.277Z,12.60
2022-11-16T12:07:27.191Z,12.60
2022-11-16T12:10:02.526Z,12.60
2022-11-16T12:12:47.447Z,12.60
2022-11-16T12:15:49.477Z,12.60
2022-11-16T12:20:48.905Z,12.50
2022-11-16T12:23:39.490Z,12.50
2022-11-16T12:26:35.338Z,12.60
2022-11-16T12:29:22.992Z,12.50
2022-11-16T12:32:10.854Z,12.50
2022-11-16T12:34:53.093Z,12.50
2022-11-16T12:37:29.895Z,12.40
2022-11-16T12:40:24.261Z,12.40
2022-11-16T12:43:00.748Z,12.60
2022-11-16T12:45:33.192Z,12.70
2022-11-16T12:48:21.893Z,13.00
2022-11-16T12:53:37.610Z,13.30
2022-11-16T12:56:12.393Z,13.30
2022-11-16T12:59:18.027Z,13.20
2022-11-16T13:02:30.221Z,13.00
2022-11-16T13:05:18.954Z,13.00
2022-11-16T13:08:11.372Z,13.10
2022-11-16T13:10:43.207Z,13.40
2022-11-16T13:13:35.937Z,13.50
2022-11-16T13:16:09.552Z,13.50
2022-11-16T13:18:40.208Z,13.50
2022-11-16T13:21:15.770Z,13.40
2022-11-16T13:24:12.196Z,13.30
2022-11-16T13:26:54.167Z,13.30
2022-11-16T13:29:54.072Z,13.30
2022-11-16T13:32:32.793Z,13.50
2022-11-16T13:35:00.935Z,13.70
2022-11-16T13:37:50.428Z,13.70
2022-11-16T13:40:27.939Z,13.80
2022-11-16T13:43:04.195Z,13.80
2022-11-16T13:45:56.984Z,13.80
2022-11-16T13:48:35.132Z,13.70
2022-11-16T13:51:05.703Z,13.60
2022-11-16T13:56:48.551Z,13.30
2022-11-16T13:59:22.867Z,13.10
2022-11-16T14:01:59.339Z,13.00
2022-11-16T14:04:42.352Z,12.90
2022-11-16T14:07:37.821Z,12.90
2022-11-16T14:10:06.021Z,13.00
2022-11-16T14:12:38.924Z,12.90
2022-11-16T14:15:29.243Z,13.00
2022-11-16T14:20:45.499Z,13.10
2022-11-16T14:23:26.196Z,13.10
2022-11-16T14:26:08.204Z,13.10
2022-11-16T14:29:03.208Z,13.10
2022-11-16T14:31:45.486Z,13.10
2022-11-16T14:34:24.343Z,13.10
2022-11-16T14:36:51.639Z,13.10
2022-11-16T14:39:37.418Z,13.10
2022-11-16T14:42:25.490Z,13.10
2022-11-16T14:45:05.975Z,13.10
2022-11-16T14:47:36.089Z,13.10
2022-11-16T14:50:02.853Z,13.20
2022-11-16T14:52:40.201Z,13.20
2022-11-16T14:55:09.542Z,13.20
2022-11-16T14:57:36.419Z,13.30
2022-11-16T15:00:23.029Z,13.30
2022-11-16T15:03:00.954Z,13.20
2022-11-16T15:05:34.821Z,13.00
2022-11-16T15:08:14.730Z,12.90
2022-11-16T15:10:51.114Z,12.70
2022-11-16T15:13:25.028Z,12.60
2022-11-16T15:16:30.537Z,12.50
2022-11-16T15:19:02.024Z,12.30
2022-11-16T15:21:29.464Z,12.50
2022-11-16T15:26:43.515Z,12.40
2022-11-16T15:29:16.656Z,12.30
2022-11-16T15:34:16.761Z,12.30
2022-11-16T15:36:43.771Z,12.20
2022-11-16T15:39:19.601Z,12.20
2022-11-16T15:41:46.858Z,12.30
2022-11-16T15:44:19.346Z,12.30
2022-11-16T15:46:48.909Z,12.30
2022-11-16T15:52:05.612Z,12.10
2022-11-16T15:54:52.645Z,12.10
2022-11-16T15:57:21.939Z,12.00
2022-11-16T15:59:50.931Z,11.90
2022-11-16T16:02:28.192Z,11.90
2022-11-16T16:04:55.146Z,11.90
2022-11-16T16:07:39.345Z,11.90
2022-11-16T16:10:32.627Z,11.80
2022-11-16T16:13:00.977Z,11.80
2022-11-16T16:15:36.849Z,11.70
2022-11-16T16:18:11.478Z,11.60
2022-11-16T16:20:38.339Z,11.50
2022-11-16T16:23:08.320Z,11.40
2022-11-16T16:25:36.305Z,11.30
2022-11-16T16:30:31.725Z,11.20
2022-11-16T16:35:26.241Z,11.10
2022-11-16T16:38:02.156Z,11.10
2022-11-16T16:40:29.217Z,11.10
2022-11-16T16:42:56.873Z,11.00
2022-11-16T16:45:45.443Z,11.00
2022-11-16T16:53:06.686Z,10.90
2022-11-16T16:58:05.465Z,10.90
2022-11-16T17:07:56.871Z,10.80
2022-11-16T17:27:37.798Z,10.90
2022-11-16T17:30:04.865Z,10.60
2022-11-16T17:39:53.244Z,10.40
2022-11-16T17:44:47.068Z,10.30
2022-11-16T17:47:13.874Z,10.20
2022-11-16T17:52:07.792Z,10.10
2022-11-16T17:57:01.613Z,10.00
2022-11-16T17:59:29.958Z,10.10
2022-11-16T18:09:19.422Z,9.90
2022-11-16T18:16:44.289Z,9.80
2022-11-16T18:21:43.457Z,9.80
2022-11-16T18:24:10.910Z,9.70
2022-11-16T18:29:05.013Z,9.60
2022-11-16T18:31:33.829Z,9.60
2022-11-16T18:34:01.325Z,9.60
2022-11-16T18:41:25.216Z,9.50
2022-11-16T18:46:27.366Z,9.50
2022-11-16T18:48:54.698Z,9.50
2022-11-16T18:51:22.929Z,9.50
2022-11-16T18:53:50.352Z,9.60
2022-11-16T19:01:23.040Z,9.80
2022-11-16T19:03:50.729Z,9.80
2022-11-16T19:06:18.430Z,9.90
2022-11-16T19:11:18.875Z,10.10
2022-11-16T19:26:15.154Z,10.40
2022-11-16T19:28:44.178Z,10.40
2022-11-16T19:31:22.945Z,10.40
2022-11-16T19:33:54.502Z,10.40
2022-11-16T19:38:48.921Z,10.50
2022-11-16T19:41:17.477Z,10.60
2022-11-16T19:43:44.242Z,10.60
2022-11-16T19:46:20.262Z,10.60
2022-11-16T19:48:49.240Z,10.60
2022-11-16T19:53:44.626Z,10.50
2022-11-16T19:56:12.797Z,10.50
2022-11-16T19:58:39.848Z,10.60
2022-11-16T20:01:09.766Z,10.60
2022-11-16T20:06:12.734Z,10.50
2022-11-16T20:11:27.429Z,10.50
2022-11-16T20:13:56.278Z,10.50
2022-11-16T20:18:52.686Z,10.50
2022-11-16T20:21:33.094Z,10.60
2022-11-16T20:26:34.732Z,10.60
2022-11-16T20:29:01.496Z,10.60
2022-11-16T20:31:33.218Z,10.60
2022-11-16T20:34:02.787Z,10.60
2022-11-16T20:41:27.894Z,10.60
2022-11-16T20:46:25.138Z,10.70
2022-11-16T20:48:52.183Z,10.70
2022-11-16T20:51:20.086Z,10.70
2022-11-16T20:53:48.558Z,10.70
2022-11-16T20:56:16.951Z,10.70
2022-11-16T21:01:13.337Z,10.70
2022-11-16T21:03:40.955Z,10.70
2022-11-16T21:21:17.334Z,10.70
2022-11-16T21:26:20.519Z,10.70
2022-11-16T21:28:47.527Z,10.70
2022-11-16T21:33:47.349Z,10.80
2022-11-16T21:36:22.989Z,10.80
2022-11-16T21:38:49.972Z,10.80
2022-11-16T21:43:44.870Z,10.90
2022-11-16T21:48:39.188Z,10.80
2022-11-16T21:53:34.085Z,10.70
2022-11-16T21:56:01.929Z,10.70
2022-11-16T21:58:28.785Z,10.70
2022-11-16T22:00:57.456Z,10.70
2022-11-16T22:03:26.287Z,10.70
2022-11-16T22:06:14.781Z,10.80
2022-11-16T22:11:10.003Z,10.70
2022-11-16T22:13:38.076Z,10.70
2022-11-16T22:16:09.359Z,10.70
2022-11-16T22:18:36.749Z,10.70
2022-11-16T22:21:03.858Z,10.70
2022-11-16T22:23:31.165Z,10.70
2022-11-16T22:26:02.306Z,10.60
2022-11-16T22:31:04.932Z,10.60
2022-11-16T22:35:59.516Z,10.60
2022-11-16T22:38:26.601Z,10.60
2022-11-16T22:40:56.933Z,10.60
2022-11-16T22:43:27.157Z,10.60
2022-11-16T22:46:01.997Z,10.60
2022-11-16T22:48:35.619Z,10.50
2022-11-16T22:51:14.500Z,10.60
2022-11-16T22:53:41.151Z,10.50
2022-11-16T22:56:09.157Z,10.50
2022-11-16T22:58:37.293Z,10.50
2022-11-16T23:01:05.644Z,10.50
2022-11-16T23:03:32.450Z,10.50
2022-11-16T23:08:27.417Z,10.40
2022-11-16T23:11:32.426Z,10.50
2022-11-16T23:16:46.617Z,10.40
2022-11-16T23:19:34.742Z,10.50
2022-11-16T23:27:38.683Z,10.50
2022-11-16T23:30:12.127Z,10.50
2022-11-16T23:35:07.317Z,10.50
2022-11-16T23:40:01.149Z,10.40
2022-11-16T23:50:07.909Z,10.50
2022-11-16T23:59:55.762Z,10.40
